createdAt,value
2019-02-24T00:01:25.671Z,40.37
2019-02-24T00:03:54.684Z,36.70
2019-02-24T00:06:20.575Z,34.93
2019-02-24T00:08:48.027Z,34.53
2019-02-24T00:11:15.491Z,33.97
2019-02-24T00:13:42.940Z,36.57
2019-02-24T00:16:10.402Z,37.57
2019-02-24T00:18:37.833Z,43.50
2019-02-24T00:21:05.294Z,35.30
2019-02-24T00:23:32.771Z,37.47
2019-02-24T00:26:00.222Z,38.83
2019-02-24T00:28:27.657Z,34.13
2019-02-24T00:30:55.098Z,32.67
2019-02-24T00:33:22.564Z,36.43
2019-02-24T00:35:50.015Z,31.97
2019-02-24T00:38:17.436Z,34.70
2019-02-24T00:40:44.913Z,33.53
2019-02-24T00:43:14.799Z,32.87
2019-02-24T00:45:42.359Z,29.87
2019-02-24T00:48:09.783Z,32.47
2019-02-24T00:50:37.224Z,31.50
2019-02-24T00:53:04.663Z,31.67
2019-02-24T00:55:32.108Z,34.93
2019-02-24T00:57:59.572Z,30.07
2019-02-24T01:00:27.055Z,30.93
2019-02-24T01:02:54.498Z,29.07
2019-02-24T01:05:21.952Z,31.70
2019-02-24T01:07:49.402Z,29.00
2019-02-24T01:10:16.888Z,31.30
2019-02-24T01:12:44.327Z,28.90
2019-02-24T01:15:11.792Z,31.97
2019-02-24T01:17:39.213Z,28.40
2019-02-24T01:20:09.242Z,28.73
2019-02-24T01:22:36.661Z,28.10
2019-02-24T01:25:04.104Z,27.30
2019-02-24T01:27:31.642Z,36.33
2019-02-24T01:29:59.108Z,25.73
2019-02-24T01:32:26.684Z,31.60
2019-02-24T01:34:54.146Z,33.73
2019-02-24T01:37:21.590Z,32.33
2019-02-24T01:39:49.022Z,32.60
2019-02-24T01:42:16.782Z,28.00
2019-02-24T01:44:44.358Z,31.23
2019-02-24T01:47:11.798Z,28.53
2019-02-24T01:49:39.259Z,25.17
2019-02-24T01:52:08.821Z,25.30
2019-02-24T01:54:36.265Z,27.17
2019-02-24T01:57:03.699Z,28.23
2019-02-24T01:59:31.173Z,22.77
2019-02-24T02:01:58.614Z,24.97
2019-02-24T02:04:26.044Z,28.27
2019-02-24T02:06:53.525Z,26.23
2019-02-24T02:09:20.979Z,27.60
2019-02-24T02:11:48.396Z,25.80
2019-02-24T02:14:15.866Z,24.80
2019-02-24T02:16:45.463Z,25.97
2019-02-24T02:19:12.997Z,25.37
2019-02-24T02:21:40.480Z,26.50
2019-02-24T02:24:07.973Z,27.23
2019-02-24T02:26:35.475Z,26.67
2019-02-24T02:29:02.915Z,23.00
2019-02-24T02:31:30.367Z,25.73
2019-02-24T02:33:57.797Z,23.27
2019-02-24T02:36:25.253Z,26.43
2019-02-24T02:38:52.685Z,27.37
2019-02-24T02:41:21.164Z,21.30
2019-02-24T02:43:48.603Z,23.03
2019-02-24T02:46:16.081Z,24.00
2019-02-24T02:48:43.538Z,21.13
2019-02-24T02:51:10.964Z,21.87
2019-02-24T02:53:38.448Z,25.20
2019-02-24T02:56:05.878Z,22.40
2019-02-24T02:58:33.349Z,20.13
2019-02-24T03:01:00.773Z,24.07
2019-02-24T03:03:28.247Z,21.97
2019-02-24T03:06:14.038Z,21.00
2019-02-24T03:08:44.570Z,25.27
2019-02-24T03:11:12.009Z,25.53
2019-02-24T03:13:39.439Z,26.27
2019-02-24T03:16:06.895Z,28.13
2019-02-24T03:18:34.367Z,33.57
2019-02-24T03:21:01.790Z,28.70
2019-02-24T03:23:29.244Z,31.93
2019-02-24T03:25:56.694Z,37.30
2019-02-24T03:28:24.179Z,32.63
2019-02-24T03:30:51.594Z,28.03
2019-02-24T03:33:19.060Z,21.70
2019-02-24T03:35:46.529Z,19.67
2019-02-24T03:38:13.968Z,19.03
2019-02-24T03:40:41.433Z,20.40
2019-02-24T03:43:08.893Z,20.30
2019-02-24T03:45:36.317Z,22.67
2019-02-24T03:48:03.777Z,21.00
2019-02-24T03:50:31.234Z,25.60
2019-02-24T03:52:58.722Z,24.27
2019-02-24T03:55:26.187Z,23.30
2019-02-24T03:57:53.699Z,22.20
2019-02-24T04:00:23.187Z,21.53
2019-02-24T04:02:50.696Z,20.73
2019-02-24T04:05:18.145Z,22.33
2019-02-24T04:07:45.625Z,20.83
2019-02-24T04:10:13.056Z,21.77
2019-02-24T04:12:40.495Z,20.70
2019-02-24T04:15:07.973Z,20.50
2019-02-24T04:17:35.437Z,20.60
2019-02-24T04:20:02.962Z,22.50
2019-02-24T04:22:30.404Z,22.07
2019-02-24T04:24:57.864Z,23.73
2019-02-24T04:27:25.342Z,21.40
2019-02-24T04:29:52.794Z,22.60
2019-02-24T04:32:20.243Z,21.43
2019-02-24T04:34:47.712Z,21.10
2019-02-24T04:37:15.174Z,21.57
2019-02-24T04:39:42.629Z,19.27
2019-02-24T04:42:10.067Z,21.73
2019-02-24T04:44:37.534Z,20.17
2019-02-24T04:47:04.971Z,16.47
2019-02-24T04:49:32.434Z,19.40
2019-02-24T04:51:59.856Z,20.30
2019-02-24T04:54:27.307Z,17.93
2019-02-24T04:56:54.769Z,19.97
2019-02-24T04:59:22.287Z,19.20
2019-02-24T05:01:49.750Z,21.03
2019-02-24T05:04:17.193Z,19.10
2019-02-24T05:06:44.641Z,20.93
2019-02-24T05:09:13.214Z,18.87
2019-02-24T05:11:40.635Z,18.53
2019-02-24T05:14:08.051Z,18.83
2019-02-24T05:16:35.563Z,18.97
2019-02-24T05:19:03.005Z,18.43
2019-02-24T05:21:30.451Z,18.57
2019-02-24T05:23:57.935Z,21.20
2019-02-24T05:26:25.377Z,20.20
2019-02-24T05:28:52.816Z,18.03
2019-02-24T05:31:20.285Z,19.00
2019-02-24T05:33:47.724Z,19.13
2019-02-24T05:36:15.214Z,19.83
2019-02-24T05:38:42.680Z,18.23
2019-02-24T05:41:12.790Z,15.50
2019-02-24T05:43:40.287Z,24.47
2019-02-24T05:46:07.755Z,18.57
2019-02-24T05:48:35.233Z,14.77
2019-02-24T05:51:02.674Z,17.53
2019-02-24T05:53:32.898Z,17.33
2019-02-24T05:56:00.399Z,17.43
2019-02-24T05:58:27.864Z,17.57
2019-02-24T06:00:55.383Z,20.30
2019-02-24T06:03:22.850Z,19.07
2019-02-24T06:05:50.366Z,16.97
2019-02-24T06:08:17.853Z,16.10
2019-02-24T06:10:45.315Z,20.17
2019-02-24T06:13:12.806Z,18.50
2019-02-24T06:15:40.254Z,17.03
2019-02-24T06:18:07.745Z,28.17
2019-02-24T06:20:35.228Z,19.10
2019-02-24T06:23:02.694Z,17.53
2019-02-24T06:25:30.179Z,19.77
2019-02-24T06:27:57.585Z,18.63
2019-02-24T06:30:25.075Z,16.93
2019-02-24T06:32:52.559Z,16.07
2019-02-24T06:35:20.002Z,18.17
2019-02-24T06:37:47.491Z,17.50
2019-02-24T06:40:14.923Z,24.73
2019-02-24T06:42:42.409Z,20.67
2019-02-24T06:45:09.906Z,16.90
2019-02-24T06:47:37.379Z,19.70
2019-02-24T06:50:04.829Z,18.67
2019-02-24T06:52:32.339Z,18.83
2019-02-24T06:54:59.827Z,17.37
2019-02-24T06:57:27.266Z,20.43
2019-02-24T06:59:54.719Z,17.17
2019-02-24T07:02:22.215Z,15.17
2019-02-24T07:04:49.641Z,16.37
2019-02-24T07:07:17.115Z,15.10
2019-02-24T07:09:44.564Z,17.67
2019-02-24T07:12:12.052Z,16.70
2019-02-24T07:14:39.523Z,18.33
2019-02-24T07:17:06.945Z,17.77
2019-02-24T07:19:35.295Z,17.37
2019-02-24T07:22:01.850Z,17.27
2019-02-24T07:24:29.348Z,18.57
2019-02-24T07:26:56.795Z,20.07
2019-02-24T07:29:24.287Z,21.37
2019-02-24T07:31:51.749Z,15.07
2019-02-24T07:34:19.197Z,17.60
2019-02-24T07:36:46.663Z,15.47
2019-02-24T07:39:14.141Z,16.27
2019-02-24T07:41:41.635Z,20.23
2019-02-24T07:44:09.095Z,19.40
2019-02-24T07:46:36.563Z,21.90
2019-02-24T07:49:05.300Z,29.03
2019-02-24T07:51:32.798Z,25.77
2019-02-24T07:54:00.267Z,31.40
2019-02-24T07:56:27.691Z,33.83
2019-02-24T07:58:55.138Z,28.17
2019-02-24T08:01:22.598Z,35.53
2019-02-24T08:03:50.047Z,28.87
2019-02-24T08:06:17.507Z,22.47
2019-02-24T08:08:44.965Z,18.30
2019-02-24T08:11:12.394Z,15.50
2019-02-24T08:13:39.816Z,18.20
2019-02-24T08:16:08.398Z,14.73
2019-02-24T08:18:35.825Z,18.63
2019-02-24T08:21:03.324Z,17.53
2019-02-24T08:23:30.684Z,15.77
2019-02-24T08:25:59.637Z,14.70
2019-02-24T08:28:27.055Z,13.87
2019-02-24T08:30:54.557Z,14.33
2019-02-24T08:33:21.961Z,14.03
2019-02-24T08:35:49.403Z,15.03
2019-02-24T08:38:16.871Z,19.97
2019-02-24T08:40:44.366Z,15.77
2019-02-24T08:43:11.825Z,19.40
2019-02-24T08:45:39.259Z,15.83
2019-02-24T08:48:06.699Z,14.07
2019-02-24T08:50:34.104Z,15.33
2019-02-24T08:53:01.573Z,16.17
2019-02-24T08:55:28.986Z,15.37
2019-02-24T08:57:56.435Z,14.70
2019-02-24T09:00:23.880Z,20.27
2019-02-24T09:02:53.388Z,18.47
2019-02-24T09:05:20.820Z,15.70
2019-02-24T09:07:49.490Z,13.83
2019-02-24T09:10:19.085Z,15.40
2019-02-24T09:12:47.275Z,12.60
2019-02-24T09:15:14.721Z,16.80
2019-02-24T09:17:44.778Z,18.57
2019-02-24T09:20:12.223Z,16.67
2019-02-24T09:22:39.767Z,15.43
2019-02-24T09:25:07.282Z,14.67
2019-02-24T09:27:34.724Z,15.83
2019-02-24T09:30:02.144Z,14.63
2019-02-24T09:32:29.619Z,16.77
2019-02-24T09:34:57.044Z,15.80
2019-02-24T09:37:24.494Z,13.20
2019-02-24T09:39:51.924Z,13.83
2019-02-24T09:42:19.340Z,14.87
2019-02-24T09:44:46.805Z,13.23
2019-02-24T09:47:14.221Z,13.33
2019-02-24T09:49:41.675Z,13.43
2019-02-24T09:52:11.589Z,13.30
2019-02-24T09:54:39.073Z,13.50
2019-02-24T09:57:06.525Z,14.00
2019-02-24T09:59:33.978Z,12.07
2019-02-24T10:02:01.400Z,13.63
2019-02-24T10:04:28.904Z,13.00
2019-02-24T10:06:58.870Z,13.13
2019-02-24T10:09:26.304Z,13.07
2019-02-24T10:11:53.738Z,16.60
2019-02-24T10:14:21.150Z,14.23
2019-02-24T10:16:48.585Z,19.47
2019-02-24T10:19:15.991Z,11.57
2019-02-24T10:21:43.420Z,9.77
2019-02-24T10:24:10.854Z,11.90
2019-02-24T10:26:38.321Z,13.47
2019-02-24T10:29:05.770Z,14.07
2019-02-24T10:31:33.181Z,12.57
2019-02-24T10:34:00.630Z,12.03
2019-02-24T10:36:29.253Z,12.80
2019-02-24T10:38:56.066Z,12.17
2019-02-24T10:41:23.472Z,10.80
2019-02-24T10:43:50.912Z,12.40
2019-02-24T10:46:18.337Z,11.07
2019-02-24T10:48:45.752Z,13.30
2019-02-24T10:51:13.215Z,13.33
2019-02-24T10:53:40.629Z,11.13
2019-02-24T10:56:08.066Z,11.50
2019-02-24T10:58:35.480Z,10.03
2019-02-24T11:01:02.955Z,9.53
2019-02-24T11:03:30.334Z,11.70
2019-02-24T11:06:01.950Z,9.10
2019-02-24T11:08:29.404Z,11.07
2019-02-24T11:10:56.834Z,10.73
2019-02-24T11:13:24.264Z,10.30
2019-02-24T11:15:51.692Z,12.50
2019-02-24T11:18:19.127Z,8.40
2019-02-24T11:20:46.525Z,6.23
2019-02-24T11:23:13.951Z,8.10
2019-02-24T11:25:41.371Z,6.73
2019-02-24T11:28:08.807Z,7.23
2019-02-24T11:30:36.215Z,5.27
2019-02-24T11:33:03.703Z,6.60
2019-02-24T11:35:33.477Z,8.53
2019-02-24T11:37:58.553Z,7.57
2019-02-24T11:40:25.990Z,5.53
2019-02-24T11:42:53.402Z,5.77
2019-02-24T11:45:20.846Z,4.80
2019-02-24T11:47:48.266Z,13.17
2019-02-24T11:50:15.721Z,6.43
2019-02-24T11:52:43.123Z,5.20
2019-02-24T11:55:10.566Z,8.70
2019-02-24T11:57:37.983Z,5.07
2019-02-24T12:00:05.404Z,5.57
2019-02-24T12:02:34.681Z,6.83
2019-02-24T12:05:00.294Z,3.73
2019-02-24T12:07:28.771Z,5.50
2019-02-24T12:09:56.227Z,4.10
2019-02-24T12:12:23.654Z,6.27
2019-02-24T12:14:51.062Z,5.87
2019-02-24T12:17:18.502Z,4.37
2019-02-24T12:19:45.934Z,5.93
2019-02-24T12:22:13.354Z,4.70
2019-02-24T12:24:44.233Z,4.33
2019-02-24T12:27:12.835Z,4.63
2019-02-24T12:29:40.236Z,4.17
2019-02-24T12:32:07.745Z,3.40
2019-02-24T12:34:35.117Z,3.90
2019-02-24T12:37:02.655Z,3.23
2019-02-24T12:39:32.647Z,4.97
2019-02-24T12:42:00.089Z,4.53
2019-02-24T12:44:27.547Z,3.73
2019-02-24T12:46:54.955Z,3.63
2019-02-24T12:49:23.410Z,4.83
2019-02-24T12:51:50.857Z,3.90
2019-02-24T12:54:18.287Z,4.23
2019-02-24T12:56:45.739Z,4.20
2019-02-24T12:59:20.389Z,2.80
2019-02-24T13:01:47.802Z,2.80
2019-02-24T13:04:15.245Z,3.13
2019-02-24T13:06:42.676Z,2.70
2019-02-24T13:09:10.105Z,3.10
2019-02-24T13:11:37.533Z,3.57
2019-02-24T13:14:04.961Z,3.57
2019-02-24T13:16:32.421Z,7.37
2019-02-24T13:18:59.862Z,4.40
2019-02-24T13:21:27.310Z,5.47
2019-02-24T13:23:54.723Z,4.00
2019-02-24T13:26:23.223Z,5.93
2019-02-24T13:28:51.610Z,4.87
2019-02-24T13:31:19.024Z,3.10
2019-02-24T13:33:46.461Z,2.80
2019-02-24T13:36:13.887Z,3.37
2019-02-24T13:38:41.307Z,3.03
2019-02-24T13:41:08.749Z,4.03
2019-02-24T13:43:36.152Z,2.93
2019-02-24T13:46:03.581Z,3.13
2019-02-24T13:48:31.002Z,2.53
2019-02-24T13:51:00.498Z,3.03
2019-02-24T13:53:29.985Z,2.40
2019-02-24T13:56:00.331Z,4.27
2019-02-24T13:58:28.872Z,3.47
2019-02-24T14:00:56.304Z,4.07
2019-02-24T14:03:23.725Z,3.63
2019-02-24T14:05:54.154Z,3.13
2019-02-24T14:08:21.575Z,2.93
2019-02-24T14:10:51.497Z,2.77
2019-02-24T14:13:20.393Z,4.57
2019-02-24T14:15:47.810Z,3.20
2019-02-24T14:18:15.282Z,3.17
2019-02-24T14:20:42.699Z,3.37
2019-02-24T14:23:10.484Z,3.27
2019-02-24T14:25:37.974Z,3.37
2019-02-24T14:28:06.726Z,3.93
2019-02-24T14:30:34.138Z,4.30
2019-02-24T14:33:01.570Z,3.73
2019-02-24T14:35:28.984Z,6.97
2019-02-24T14:37:56.394Z,7.23
2019-02-24T14:40:23.854Z,5.07
2019-02-24T14:42:51.260Z,3.20
2019-02-24T14:45:18.703Z,4.07
2019-02-24T14:47:46.114Z,3.77
2019-02-24T14:50:13.550Z,3.23
2019-02-24T14:52:40.971Z,3.30
2019-02-24T14:55:11.621Z,4.13
2019-02-24T14:57:39.066Z,3.83
2019-02-24T15:00:13.820Z,3.93
2019-02-24T15:02:42.686Z,3.43
2019-02-24T15:05:08.736Z,4.97
2019-02-24T15:07:36.173Z,3.90
2019-02-24T15:10:03.588Z,6.07
2019-02-24T15:12:30.996Z,4.13
2019-02-24T15:14:58.463Z,3.53
2019-02-24T15:17:25.896Z,5.27
2019-02-24T15:19:53.334Z,3.80
2019-02-24T15:22:20.742Z,4.13
2019-02-24T15:24:48.187Z,3.83
2019-02-24T15:27:15.600Z,3.00
2019-02-24T15:29:45.461Z,7.83
2019-02-24T15:32:12.889Z,4.93
2019-02-24T15:34:40.293Z,4.20
2019-02-24T15:37:07.747Z,3.37
2019-02-24T15:39:35.172Z,4.43
2019-02-24T15:42:03.761Z,3.83
2019-02-24T15:44:32.799Z,3.60
2019-02-24T15:47:00.507Z,2.90
2019-02-24T15:49:28.997Z,3.57
2019-02-24T15:51:56.441Z,5.00
2019-02-24T15:54:23.902Z,5.93
2019-02-24T15:56:51.350Z,5.63
2019-02-24T15:59:18.793Z,3.90
2019-02-24T16:01:46.213Z,5.00
2019-02-24T16:04:13.631Z,5.33
2019-02-24T16:06:41.033Z,4.77
2019-02-24T16:09:08.468Z,9.40
2019-02-24T16:11:35.877Z,12.17
2019-02-24T16:14:03.306Z,6.30
2019-02-24T16:16:31.946Z,5.40
2019-02-24T16:18:59.377Z,7.33
2019-02-24T16:21:26.808Z,7.80
2019-02-24T16:23:54.230Z,6.13
2019-02-24T16:26:21.658Z,6.40
2019-02-24T16:28:49.986Z,8.20
2019-02-24T16:31:17.457Z,9.23
2019-02-24T16:33:44.899Z,10.10
2019-02-24T16:36:12.308Z,14.33
2019-02-24T16:38:39.749Z,7.07
2019-02-24T16:41:07.193Z,9.83
2019-02-24T16:43:34.606Z,8.27
2019-02-24T16:46:02.063Z,5.53
2019-02-24T16:48:29.520Z,5.00
2019-02-24T16:50:58.030Z,5.03
2019-02-24T16:53:25.467Z,5.80
2019-02-24T16:55:52.893Z,7.17
2019-02-24T16:58:24.120Z,6.40
2019-02-24T17:00:51.545Z,6.67
2019-02-24T17:03:20.102Z,5.80
2019-02-24T17:05:46.500Z,6.57
2019-02-24T17:08:13.957Z,7.33
2019-02-24T17:10:41.395Z,23.23
2019-02-24T17:13:08.864Z,5.93
2019-02-24T17:15:36.315Z,10.50
2019-02-24T17:18:04.554Z,5.97
2019-02-24T17:20:33.511Z,6.43
2019-02-24T17:23:01.724Z,13.43
2019-02-24T17:25:29.165Z,8.43
2019-02-24T17:27:56.597Z,8.87
2019-02-24T17:30:24.139Z,9.33
2019-02-24T17:32:51.531Z,9.10
2019-02-24T17:35:20.063Z,7.07
2019-02-24T17:37:47.578Z,7.73
2019-02-24T17:40:19.332Z,6.70
2019-02-24T17:42:45.128Z,9.83
2019-02-24T17:45:12.538Z,11.37
2019-02-24T17:47:40.008Z,10.90
2019-02-24T17:50:10.303Z,9.27
2019-02-24T17:52:37.725Z,11.60
2019-02-24T17:55:05.185Z,9.77
2019-02-24T17:57:33.772Z,27.20
2019-02-24T18:00:01.239Z,9.27
2019-02-24T18:02:28.704Z,10.37
2019-02-24T18:04:56.213Z,13.03
2019-02-24T18:07:23.736Z,12.77
2019-02-24T18:09:51.247Z,14.57
2019-02-24T18:12:18.666Z,12.10
2019-02-24T18:14:56.562Z,11.23
2019-02-24T18:17:23.977Z,13.23
2019-02-24T18:19:51.438Z,14.03
2019-02-24T18:22:18.871Z,13.43
2019-02-24T18:24:46.276Z,13.30
2019-02-24T18:27:13.929Z,11.83
2019-02-24T18:29:41.732Z,14.03
2019-02-24T18:32:09.240Z,10.70
2019-02-24T18:34:37.025Z,11.30
2019-02-24T18:37:04.488Z,11.90
2019-02-24T18:39:31.905Z,9.87
2019-02-24T18:41:59.314Z,12.80
2019-02-24T18:44:26.759Z,15.07
2019-02-24T18:46:54.158Z,15.20
2019-02-24T18:49:21.581Z,15.50
2019-02-24T18:51:49.013Z,13.23
2019-02-24T18:54:16.428Z,11.77
2019-02-24T18:56:43.919Z,13.73
2019-02-24T18:59:11.354Z,11.30
2019-02-24T19:01:38.963Z,11.83
2019-02-24T19:04:06.408Z,10.83
2019-02-24T19:06:39.181Z,11.87
2019-02-24T19:09:01.358Z,12.00
2019-02-24T19:11:28.757Z,14.17
2019-02-24T19:13:56.157Z,12.83
2019-02-24T19:16:23.589Z,12.77
2019-02-24T19:18:51.060Z,12.77
2019-02-24T19:21:18.499Z,13.53
2019-02-24T19:23:45.902Z,15.83
2019-02-24T19:26:13.418Z,11.70
2019-02-24T19:28:40.843Z,15.60
2019-02-24T19:31:08.279Z,16.90
2019-02-24T19:33:35.744Z,13.67
2019-02-24T19:36:03.162Z,15.03
2019-02-24T19:38:30.616Z,15.77
2019-02-24T19:40:58.038Z,16.43
2019-02-24T19:43:25.483Z,14.43
2019-02-24T19:45:52.907Z,19.13
2019-02-24T19:48:20.435Z,15.20
2019-02-24T19:50:47.859Z,17.60
2019-02-24T19:53:15.310Z,16.07
2019-02-24T19:55:42.812Z,15.23
2019-02-24T19:58:10.239Z,18.00
2019-02-24T20:00:37.670Z,14.37
2019-02-24T20:03:05.095Z,18.33
2019-02-24T20:05:32.559Z,17.80
2019-02-24T20:08:00.018Z,13.47
2019-02-24T20:10:27.488Z,16.37
2019-02-24T20:12:54.887Z,15.73
2019-02-24T20:15:22.294Z,15.97
2019-02-24T20:17:49.770Z,20.07
2019-02-24T20:20:17.296Z,19.73
2019-02-24T20:22:44.693Z,17.80
2019-02-24T20:25:12.184Z,16.67
2019-02-24T20:27:39.619Z,13.93
2019-02-24T20:30:16.033Z,13.20
2019-02-24T20:32:44.489Z,15.70
2019-02-24T20:35:11.912Z,13.50
2019-02-24T20:37:39.357Z,12.63
2019-02-24T20:40:09.363Z,13.13
2019-02-24T20:42:36.808Z,14.73
2019-02-24T20:45:04.281Z,13.13
2019-02-24T20:47:31.744Z,14.47
2019-02-24T20:49:59.233Z,14.57
2019-02-24T20:52:26.666Z,15.53
2019-02-24T20:54:54.116Z,14.63
2019-02-24T20:57:21.687Z,15.17
2019-02-24T20:59:49.134Z,15.10
2019-02-24T21:02:18.228Z,15.57
2019-02-24T21:04:44.044Z,15.93
2019-02-24T21:07:11.479Z,15.67
2019-02-24T21:09:38.934Z,16.77
2019-02-24T21:12:06.351Z,16.30
2019-02-24T21:14:33.782Z,17.13
2019-02-24T21:17:01.381Z,16.37
2019-02-24T21:19:28.890Z,15.97
2019-02-24T21:21:56.377Z,17.10
2019-02-24T21:24:23.800Z,15.50
2019-02-24T21:26:51.302Z,18.60
2019-02-24T21:29:18.803Z,18.93
2019-02-24T21:31:46.266Z,14.73
2019-02-24T21:34:13.670Z,17.93
2019-02-24T21:36:41.171Z,19.40
2019-02-24T21:39:08.660Z,18.17
2019-02-24T21:41:37.159Z,15.70
2019-02-24T21:44:04.581Z,16.37
2019-02-24T21:46:32.024Z,17.17
2019-02-24T21:48:59.517Z,17.50
2019-02-24T21:51:27.000Z,14.73
2019-02-24T21:53:54.518Z,18.17
2019-02-24T21:56:21.965Z,17.53
2019-02-24T21:58:50.666Z,18.83
2019-02-24T22:01:18.084Z,18.60
2019-02-24T22:03:45.536Z,19.00
2019-02-24T22:06:12.954Z,19.60
2019-02-24T22:08:40.388Z,24.23
2019-02-24T22:11:07.915Z,22.83
2019-02-24T22:13:35.323Z,22.77
2019-02-24T22:16:02.737Z,18.30
2019-02-24T22:18:30.188Z,16.73
2019-02-24T22:20:57.608Z,18.23
2019-02-24T22:23:25.133Z,16.33
2019-02-24T22:25:52.522Z,16.80
2019-02-24T22:28:19.963Z,13.67
2019-02-24T22:30:47.382Z,16.40
2019-02-24T22:33:14.818Z,16.57
2019-02-24T22:35:42.242Z,16.53
2019-02-24T22:38:09.731Z,17.27
2019-02-24T22:40:37.144Z,17.03
2019-02-24T22:43:04.611Z,14.13
2019-02-24T22:45:32.027Z,17.33
2019-02-24T22:47:59.452Z,16.50
2019-02-24T22:50:26.897Z,15.70
2019-02-24T22:52:54.313Z,15.73
2019-02-24T22:55:21.772Z,16.70
2019-02-24T22:57:49.301Z,19.33
2019-02-24T23:00:22.699Z,19.10
2019-02-24T23:02:50.117Z,22.80
2019-02-24T23:05:17.547Z,20.53
2019-02-24T23:07:45.029Z,19.23
2019-02-24T23:10:18.399Z,19.33
2019-02-24T23:12:45.836Z,17.40
2019-02-24T23:15:13.264Z,22.70
2019-02-24T23:17:40.740Z,19.33
2019-02-24T23:20:08.265Z,18.20
2019-02-24T23:22:35.683Z,18.17
2019-02-24T23:25:03.103Z,18.03
2019-02-24T23:27:30.574Z,20.80
2019-02-24T23:29:58.013Z,18.07
2019-02-24T23:32:25.453Z,18.80
2019-02-24T23:34:52.877Z,18.30
2019-02-24T23:37:20.315Z,17.63
2019-02-24T23:39:47.812Z,18.63
2019-02-24T23:42:15.212Z,15.63
2019-02-24T23:44:42.670Z,17.07
2019-02-24T23:47:10.081Z,18.00
2019-02-24T23:49:37.510Z,17.87
2019-02-24T23:52:04.939Z,16.57
2019-02-24T23:54:33.597Z,14.90
2019-02-24T23:56:59.839Z,19.37
2019-02-24T23:59:27.252Z,16.47
